sensor_id;sensor_type;location;lat;lon;timestamp;pressure;altitude;pressure_sealevel;temperature;humidity
61506;BME280;47366;51.916;4.574;2023-04-19T00:02:18;102855.44;;;8.95;71.63
61506;BME280;47366;51.916;4.574;2023-04-19T00:04:45;102847.41;;;8.90;72.27
61506;BME280;47366;51.916;4.574;2023-04-19T00:07:11;102842.00;;;8.90;71.82
61506;BME280;47366;51.916;4.574;2023-04-19T00:09:37;102842.09;;;8.87;72.32
61506;BME280;47366;51.916;4.574;2023-04-19T00:12:03;102837.66;;;8.83;72.53
61506;BME280;47366;51.916;4.574;2023-04-19T00:14:28;102835.03;;;8.80;72.31
61506;BME280;47366;51.916;4.574;2023-04-19T00:16:53;102836.81;;;8.81;73.35
61506;BME280;47366;51.916;4.574;2023-04-19T00:19:19;102830.59;;;8.77;72.33
61506;BME280;47366;51.916;4.574;2023-04-19T00:21:46;102833.31;;;8.76;72.67
61506;BME280;47366;51.916;4.574;2023-04-19T00:24:11;102836.06;;;8.74;72.94
61506;BME280;47366;51.916;4.574;2023-04-19T00:26:37;102828.03;;;8.69;72.72
61506;BME280;47366;51.916;4.574;2023-04-19T00:29:02;102829.88;;;8.67;72.52
61506;BME280;47366;51.916;4.574;2023-04-19T00:31:27;102827.31;;;8.63;72.72
61506;BME280;47366;51.916;4.574;2023-04-19T00:33:53;102834.50;;;8.62;72.46
61506;BME280;47366;51.916;4.574;2023-04-19T00:36:18;102834.56;;;8.61;72.97
61506;BME280;47366;51.916;4.574;2023-04-19T00:38:43;102826.50;;;8.58;73.09
61506;BME280;47366;51.916;4.574;2023-04-19T00:41:08;102824.72;;;8.58;73.65
61506;BME280;47366;51.916;4.574;2023-04-19T00:43:34;102831.94;;;8.56;72.93
61506;BME280;47366;51.916;4.574;2023-04-19T00:45:59;102836.59;;;8.48;74.09
61506;BME280;47366;51.916;4.574;2023-04-19T00:48:25;102829.44;;;8.47;74.31
61506;BME280;47366;51.916;4.574;2023-04-19T00:50:51;102826.75;;;8.47;74.78
61506;BME280;47366;51.916;4.574;2023-04-19T00:53:16;102823.16;;;8.46;73.66
61506;BME280;47366;51.916;4.574;2023-04-19T00:55:41;102822.16;;;8.50;74.80
61506;BME280;47366;51.916;4.574;2023-04-19T00:58:07;102811.34;;;8.50;74.10
61506;BME280;47366;51.916;4.574;2023-04-19T01:00:33;102822.97;;;8.56;74.53
61506;BME280;47366;51.916;4.574;2023-04-19T01:02:59;102810.34;;;8.56;74.07
61506;BME280;47366;51.916;4.574;2023-04-19T01:05:25;102809.38;;;8.59;74.62
61506;BME280;47366;51.916;4.574;2023-04-19T01:07:50;102811.94;;;8.65;73.82
61506;BME280;47366;51.916;4.574;2023-04-19T01:10:16;102816.28;;;8.72;74.33
61506;BME280;47366;51.916;4.574;2023-04-19T01:12:42;102815.31;;;8.75;74.30
61506;BME280;47366;51.916;4.574;2023-04-19T01:15:07;102817.09;;;8.77;74.22
61506;BME280;47366;51.916;4.574;2023-04-19T01:17:33;102811.56;;;8.82;74.07
61506;BME280;47366;51.916;4.574;2023-04-19T01:20:03;102808.75;;;8.86;73.93
61506;BME280;47366;51.916;4.574;2023-04-19T01:22:31;102807.78;;;8.89;74.43
61506;BME280;47366;51.916;4.574;2023-04-19T01:24:57;102801.44;;;8.91;74.50
61506;BME280;47366;51.916;4.574;2023-04-19T01:27:22;102810.38;;;8.95;75.01
61506;BME280;47366;51.916;4.574;2023-04-19T01:29:48;102797.69;;;8.99;75.14
61506;BME280;47366;51.916;4.574;2023-04-19T01:32:14;102800.22;;;9.05;74.34
61506;BME280;47366;51.916;4.574;2023-04-19T01:34:39;102801.88;;;9.10;74.99
61506;BME280;47366;51.916;4.574;2023-04-19T01:37:04;102804.44;;;9.17;75.38
61506;BME280;47366;51.916;4.574;2023-04-19T01:39:30;102799.81;;;9.22;75.32
61506;BME280;47366;51.916;4.574;2023-04-19T01:41:55;102796.97;;;9.28;75.57
61506;BME280;47366;51.916;4.574;2023-04-19T01:44:20;102790.50;;;9.33;74.96
61506;BME280;47366;51.916;4.574;2023-04-19T01:46:46;102794.91;;;9.39;74.93
61506;BME280;47366;51.916;4.574;2023-04-19T01:49:12;102797.47;;;9.44;75.27
61506;BME280;47366;51.916;4.574;2023-04-19T01:51:37;102806.41;;;9.47;74.24
61506;BME280;47366;51.916;4.574;2023-04-19T01:54:03;102801.84;;;9.49;75.98
61506;BME280;47366;51.916;4.574;2023-04-19T01:56:29;102799.03;;;9.54;75.00
61506;BME280;47366;51.916;4.574;2023-04-19T01:58:55;102792.72;;;9.53;74.45
61506;BME280;47366;51.916;4.574;2023-04-19T02:01:20;102801.63;;;9.57;75.16
61506;BME280;47366;51.916;4.574;2023-04-19T02:03:46;102788.13;;;9.55;74.18
61506;BME280;47366;51.916;4.574;2023-04-19T02:06:12;102798.94;;;9.57;74.50
61506;BME280;47366;51.916;4.574;2023-04-19T02:08:38;102801.66;;;9.55;75.11
61506;BME280;47366;51.916;4.574;2023-04-19T02:11:08;102795.44;;;9.53;75.25
61506;BME280;47366;51.916;4.574;2023-04-19T02:13:33;102789.09;;;9.53;75.74
61506;BME280;47366;51.916;4.574;2023-04-19T02:15:59;102783.81;;;9.48;75.20
61506;BME280;47366;51.916;4.574;2023-04-19T02:18:26;102789.19;;;9.50;74.77
61506;BME280;47366;51.916;4.574;2023-04-19T02:20:54;102794.72;;;9.45;75.63
61506;BME280;47366;51.916;4.574;2023-04-19T02:23:19;102788.53;;;9.40;75.51
61506;BME280;47366;51.916;4.574;2023-04-19T02:25:45;102796.69;;;9.39;75.43
61506;BME280;47366;51.916;4.574;2023-04-19T02:28:10;102790.50;;;9.33;75.83
61506;BME280;47366;51.916;4.574;2023-04-19T02:30:36;102788.78;;;9.31;76.06
61506;BME280;47366;51.916;4.574;2023-04-19T02:33:02;102800.59;;;9.27;75.77
61506;BME280;47366;51.916;4.574;2023-04-19T02:35:27;102794.28;;;9.26;74.90
61506;BME280;47366;51.916;4.574;2023-04-19T02:37:52;102786.41;;;9.17;75.84
61506;BME280;47366;51.916;4.574;2023-04-19T02:40:18;102790.06;;;9.14;75.85
61506;BME280;47366;51.916;4.574;2023-04-19T02:42:43;102790.25;;;9.08;76.21
61506;BME280;47366;51.916;4.574;2023-04-19T02:45:09;102785.81;;;9.04;76.36
61506;BME280;47366;51.916;4.574;2023-04-19T02:47:34;102788.50;;;9.06;76.42
61506;BME280;47366;51.916;4.574;2023-04-19T02:50:00;102794.84;;;9.03;76.24
61506;BME280;47366;51.916;4.574;2023-04-19T02:52:26;102789.50;;;9.00;76.42
61506;BME280;47366;51.916;4.574;2023-04-19T02:54:52;102799.38;;;9.03;76.58
61506;BME280;47366;51.916;4.574;2023-04-19T02:57:17;102798.47;;;9.02;76.03
61506;BME280;47366;51.916;4.574;2023-04-19T02:59:42;102791.38;;;8.98;76.10
61506;BME280;47366;51.916;4.574;2023-04-19T03:02:08;102794.03;;;9.00;76.53
61506;BME280;47366;51.916;4.574;2023-04-19T03:04:33;102798.50;;;9.01;76.83
61506;BME280;47366;51.916;4.574;2023-04-19T03:06:58;102802.06;;;9.03;77.17
61506;BME280;47366;51.916;4.574;2023-04-19T03:09:24;102807.47;;;9.03;77.25
61506;BME280;47366;51.916;4.574;2023-04-19T03:11:49;102799.41;;;9.01;76.99
61506;BME280;47366;51.916;4.574;2023-04-19T03:14:15;102795.75;;;9.04;76.43
61506;BME280;47366;51.916;4.574;2023-04-19T03:16:40;102788.63;;;9.00;77.14
61506;BME280;47366;51.916;4.574;2023-04-19T03:19:06;102801.22;;;9.01;76.93
61506;BME280;47366;51.916;4.574;2023-04-19T03:21:31;102788.72;;;8.97;77.64
61506;BME280;47366;51.916;4.574;2023-04-19T03:23:56;102795.88;;;8.98;77.24
61506;BME280;47366;51.916;4.574;2023-04-19T03:26:22;102796.78;;;8.98;77.57
61506;BME280;47366;51.916;4.574;2023-04-19T03:28:47;102803.03;;;9.00;77.02
61506;BME280;47366;51.916;4.574;2023-04-19T03:31:13;102790.47;;;8.98;77.35
61506;BME280;47366;51.916;4.574;2023-04-19T03:33:38;102794.13;;;8.97;78.08
61506;BME280;47366;51.916;4.574;2023-04-19T03:36:04;102785.94;;;9.00;77.41
61506;BME280;47366;51.916;4.574;2023-04-19T03:38:31;102791.31;;;9.01;78.01
61506;BME280;47366;51.916;4.574;2023-04-19T03:40:56;102789.50;;;9.02;77.39
61506;BME280;47366;51.916;4.574;2023-04-19T03:43:22;102790.47;;;8.99;78.61
61506;BME280;47366;51.916;4.574;2023-04-19T03:45:48;102774.34;;;8.95;77.80
61506;BME280;47366;51.916;4.574;2023-04-19T03:48:14;102780.53;;;9.00;77.14
61506;BME280;47366;51.916;4.574;2023-04-19T03:50:39;102782.28;;;9.01;77.32
61506;BME280;47366;51.916;4.574;2023-04-19T03:53:04;102787.66;;;9.02;78.01
61506;BME280;47366;51.916;4.574;2023-04-19T03:55:30;102789.50;;;9.00;78.46
61506;BME280;47366;51.916;4.574;2023-04-19T03:57:55;102783.22;;;9.00;78.42
61506;BME280;47366;51.916;4.574;2023-04-19T04:00:21;102780.59;;;8.97;77.98
61506;BME280;47366;51.916;4.574;2023-04-19T04:02:46;102777.94;;;8.95;77.80
61506;BME280;47366;51.916;4.574;2023-04-19T04:05:12;102789.56;;;8.99;78.08
61506;BME280;47366;51.916;4.574;2023-04-19T04:07:37;102794.00;;;9.01;78.29
61506;BME280;47366;51.916;4.574;2023-04-19T04:10:03;102781.47;;;8.99;78.36
61506;BME280;47366;51.916;4.574;2023-04-19T04:12:29;102776.97;;;8.98;77.81
61506;BME280;47366;51.916;4.574;2023-04-19T04:14:54;102785.00;;;9.01;77.70
61506;BME280;47366;51.916;4.574;2023-04-19T04:17:20;102783.22;;;9.00;78.04
61506;BME280;47366;51.916;4.574;2023-04-19T04:19:45;102787.66;;;9.02;78.16
61506;BME280;47366;51.916;4.574;2023-04-19T04:22:10;102796.63;;;9.04;77.75
61506;BME280;47366;51.916;4.574;2023-04-19T04:24:39;102785.84;;;9.03;78.41
61506;BME280;47366;51.916;4.574;2023-04-19T04:27:08;102791.34;;;9.00;78.86
61506;BME280;47366;51.916;4.574;2023-04-19T04:29:36;102794.00;;;9.01;78.25
61506;BME280;47366;51.916;4.574;2023-04-19T04:32:04;102787.66;;;9.02;77.74
61506;BME280;47366;51.916;4.574;2023-04-19T04:34:30;102803.88;;;9.02;77.86
61506;BME280;47366;51.916;4.574;2023-04-19T04:36:55;102794.00;;;9.01;77.91
61506;BME280;47366;51.916;4.574;2023-04-19T04:39:21;102804.78;;;9.03;77.72
61506;BME280;47366;51.916;4.574;2023-04-19T04:41:49;102794.00;;;9.01;78.53
61506;BME280;47366;51.916;4.574;2023-04-19T04:44:16;102799.38;;;9.03;78.11
61506;BME280;47366;51.916;4.574;2023-04-19T04:46:41;102800.25;;;9.03;77.65
61506;BME280;47366;51.916;4.574;2023-04-19T04:49:06;102803.91;;;9.01;78.17
61506;BME280;47366;51.916;4.574;2023-04-19T04:51:33;102802.03;;;9.04;77.79
61506;BME280;47366;51.916;4.574;2023-04-19T04:53:58;102800.22;;;9.05;78.57
61506;BME280;47366;51.916;4.574;2023-04-19T04:56:23;102802.03;;;9.04;78.04
61506;BME280;47366;51.916;4.574;2023-04-19T04:58:50;102803.88;;;9.04;77.54
61506;BME280;47366;51.916;4.574;2023-04-19T05:01:16;102813.63;;;9.09;77.66
61506;BME280;47366;51.916;4.574;2023-04-19T05:03:43;102812.69;;;9.10;78.13
61506;BME280;47366;51.916;4.574;2023-04-19T05:06:09;102811.75;;;9.13;77.83
61506;BME280;47366;51.916;4.574;2023-04-19T05:08:34;102809.94;;;9.13;77.83
61506;BME280;47366;51.916;4.574;2023-04-19T05:11:00;102809.88;;;9.15;77.57
61506;BME280;47366;51.916;4.574;2023-04-19T05:13:25;102809.06;;;9.13;78.13
61506;BME280;47366;51.916;4.574;2023-04-19T05:15:50;102802.72;;;9.14;77.58
61506;BME280;47366;51.916;4.574;2023-04-19T05:18:16;102809.88;;;9.15;78.06
61506;BME280;47366;51.916;4.574;2023-04-19T05:20:41;102801.75;;;9.17;77.96
61506;BME280;47366;51.916;4.574;2023-04-19T05:23:07;102800.84;;;9.18;77.66
61506;BME280;47366;51.916;4.574;2023-04-19T05:25:35;102796.34;;;9.17;77.33
61506;BME280;47366;51.916;4.574;2023-04-19T05:28:00;102816.00;;;9.23;77.61
61506;BME280;47366;51.916;4.574;2023-04-19T05:30:27;102810.72;;;9.19;78.01
61506;BME280;47366;51.916;4.574;2023-04-19T05:32:53;102813.41;;;9.19;77.39
61506;BME280;47366;51.916;4.574;2023-04-19T05:35:18;102816.13;;;9.19;77.14
61506;BME280;47366;51.916;4.574;2023-04-19T05:37:44;102816.22;;;9.14;77.23
61506;BME280;47366;51.916;4.574;2023-04-19T05:40:09;102817.09;;;9.16;77.27
61506;BME280;47366;51.916;4.574;2023-04-19T05:42:35;102817.16;;;9.13;77.34
61506;BME280;47366;51.916;4.574;2023-04-19T05:45:01;102817.09;;;9.16;77.14
61506;BME280;47366;51.916;4.574;2023-04-19T05:47:26;102820.66;;;9.18;77.02
61506;BME280;47366;51.916;4.574;2023-04-19T05:49:51;102810.72;;;9.19;76.88
61506;BME280;47366;51.916;4.574;2023-04-19T05:52:17;102819.63;;;9.22;76.76
61506;BME280;47366;51.916;4.574;2023-04-19T05:54:42;102819.59;;;9.24;76.45
61506;BME280;47366;51.916;4.574;2023-04-19T05:57:08;102826.81;;;9.25;76.49
61506;BME280;47366;51.916;4.574;2023-04-19T05:59:33;102825.84;;;9.27;76.27
61506;BME280;47366;51.916;4.574;2023-04-19T06:01:59;102822.09;;;9.31;76.20
61506;BME280;47366;51.916;4.574;2023-04-19T06:04:25;102833.69;;;9.36;75.80
61506;BME280;47366;51.916;4.574;2023-04-19T06:06:51;102830.84;;;9.43;75.77
61506;BME280;47366;51.916;4.574;2023-04-19T06:09:16;102832.47;;;9.50;75.52
61506;BME280;47366;51.916;4.574;2023-04-19T06:11:43;102830.44;;;9.58;75.38
61506;BME280;47366;51.916;4.574;2023-04-19T06:14:09;102832.06;;;9.65;75.05
61506;BME280;47366;51.916;4.574;2023-04-19T06:16:35;102831.06;;;9.69;74.43
61506;BME280;47366;51.916;4.574;2023-04-19T06:19:00;102829.91;;;9.79;74.45
61506;BME280;47366;51.916;4.574;2023-04-19T06:21:29;102835.16;;;9.86;73.45
61506;BME280;47366;51.916;4.574;2023-04-19T06:23:55;102843.16;;;9.90;72.67
61506;BME280;47366;51.916;4.574;2023-04-19T06:26:20;102840.34;;;9.95;72.67
61506;BME280;47366;51.916;4.574;2023-04-19T06:28:45;102832.97;;;10.00;72.36
61506;BME280;47366;51.916;4.574;2023-04-19T06:31:11;102846.16;;;10.12;72.59
61506;BME280;47366;51.916;4.574;2023-04-19T06:33:36;102837.97;;;10.15;72.07
61506;BME280;47366;51.916;4.574;2023-04-19T06:36:01;102847.56;;;10.27;71.35
61506;BME280;47366;51.916;4.574;2023-04-19T06:38:28;102847.63;;;10.26;69.81
61506;BME280;47366;51.916;4.574;2023-04-19T06:40:53;102843.84;;;10.33;70.98
61506;BME280;47366;51.916;4.574;2023-04-19T06:43:19;102832.63;;;10.47;70.86
61506;BME280;47366;51.916;4.574;2023-04-19T06:45:45;102841.16;;;10.62;70.42
61506;BME280;47366;51.916;4.574;2023-04-19T06:48:11;102843.59;;;10.72;69.48
61506;BME280;47366;51.916;4.574;2023-04-19T06:50:36;102835.47;;;10.72;68.51
61506;BME280;47366;51.916;4.574;2023-04-19T06:53:01;102830.50;;;10.86;67.51
61506;BME280;47366;51.916;4.574;2023-04-19T06:55:27;102833.69;;;11.00;67.82
61506;BME280;47366;51.916;4.574;2023-04-19T06:57:52;102845.25;;;11.05;66.04
61506;BME280;47366;51.916;4.574;2023-04-19T07:00:18;102850.47;;;11.13;65.71
61506;BME280;47366;51.916;4.574;2023-04-19T07:02:43;102839.22;;;11.25;65.50
61506;BME280;47366;51.916;4.574;2023-04-19T07:05:08;102837.09;;;11.35;64.53
61506;BME280;47366;51.916;4.574;2023-04-19T07:07:34;102836.69;;;11.47;65.05
61506;BME280;47366;51.916;4.574;2023-04-19T07:10:02;102830.16;;;11.53;64.26
61506;BME280;47366;51.916;4.574;2023-04-19T07:12:27;102834.81;;;11.50;61.03
61506;BME280;47366;51.916;4.574;2023-04-19T07:14:52;102833.78;;;11.54;62.66
61506;BME280;47366;51.916;4.574;2023-04-19T07:17:23;102839.50;;;11.71;61.30
61506;BME280;47366;51.916;4.574;2023-04-19T07:19:49;102834.81;;;11.76;61.23
61506;BME280;47366;51.916;4.574;2023-04-19T07:22:14;102827.69;;;11.99;61.73
61506;BME280;47366;51.916;4.574;2023-04-19T07:24:40;102822.09;;;12.28;61.34
61506;BME280;47366;51.916;4.574;2023-04-19T07:27:06;102814.91;;;12.51;60.53
61506;BME280;47366;51.916;4.574;2023-04-19T07:29:35;102813.63;;;12.61;58.91
61506;BME280;47366;51.916;4.574;2023-04-19T07:32:01;102824.25;;;12.67;58.84
61506;BME280;47366;51.916;4.574;2023-04-19T07:34:27;102817.97;;;12.65;58.99
61506;BME280;47366;51.916;4.574;2023-04-19T07:36:52;102812.31;;;12.71;58.93
61506;BME280;47366;51.916;4.574;2023-04-19T07:39:17;102826.41;;;12.83;58.06
61506;BME280;47366;51.916;4.574;2023-04-19T07:41:44;102812.44;;;12.92;56.81
61506;BME280;47366;51.916;4.574;2023-04-19T07:44:09;102816.88;;;12.94;56.51
61506;BME280;47366;51.916;4.574;2023-04-19T07:46:36;102814.94;;;12.96;56.50
61506;BME280;47366;51.916;4.574;2023-04-19T07:49:01;102812.19;;;13.20;54.17
61506;BME280;47366;51.916;4.574;2023-04-19T07:51:27;102820.81;;;13.31;53.58
61506;BME280;47366;51.916;4.574;2023-04-19T07:53:53;102812.22;;;13.42;55.56
61506;BME280;47366;51.916;4.574;2023-04-19T07:56:18;102814.28;;;13.57;54.80
61506;BME280;47366;51.916;4.574;2023-04-19T07:58:44;102820.03;;;13.72;53.24
61506;BME280;47366;51.916;4.574;2023-04-19T08:01:10;102821.34;;;13.84;54.28
61506;BME280;47366;51.916;4.574;2023-04-19T08:03:36;102819.25;;;13.90;52.25
61506;BME280;47366;51.916;4.574;2023-04-19T08:06:05;102815.56;;;14.12;53.17
61506;BME280;47366;51.916;4.574;2023-04-19T08:08:33;102809.06;;;14.14;53.06
61506;BME280;47366;51.916;4.574;2023-04-19T08:10:59;102811.25;;;14.27;51.08
61506;BME280;47366;51.916;4.574;2023-04-19T08:13:26;102807.09;;;14.18;50.64
61506;BME280;47366;51.916;4.574;2023-04-19T08:15:51;102808.88;;;14.19;49.30
61506;BME280;47366;51.916;4.574;2023-04-19T08:18:16;102804.91;;;14.26;48.58
61506;BME280;47366;51.916;4.574;2023-04-19T08:20:42;102807.22;;;14.35;50.69
61506;BME280;47366;51.916;4.574;2023-04-19T08:23:07;102806.19;;;14.38;49.20
61506;BME280;47366;51.916;4.574;2023-04-19T08:25:33;102808.50;;;14.47;49.43
61506;BME280;47366;51.916;4.574;2023-04-19T08:27:58;102808.00;;;14.58;50.64
61506;BME280;47366;51.916;4.574;2023-04-19T08:30:24;102804.34;;;14.78;48.73
61506;BME280;47366;51.916;4.574;2023-04-19T08:32:49;102793.72;;;14.91;49.61
61506;BME280;47366;51.916;4.574;2023-04-19T08:35:15;102791.84;;;15.10;45.61
61506;BME280;47366;51.916;4.574;2023-04-19T08:37:41;102801.28;;;15.22;48.70
61506;BME280;47366;51.916;4.574;2023-04-19T08:40:07;102800.63;;;15.17;45.49
61506;BME280;47366;51.916;4.574;2023-04-19T08:42:32;102804.06;;;15.20;47.35
61506;BME280;47366;51.916;4.574;2023-04-19T08:45:02;102792.91;;;15.07;46.98
61506;BME280;47366;51.916;4.574;2023-04-19T08:47:31;102796.25;;;15.32;45.83
61506;BME280;47366;51.916;4.574;2023-04-19T08:50:07;102794.97;;;15.39;45.57
61506;BME280;47366;51.916;4.574;2023-04-19T08:52:34;102797.41;;;15.45;46.42
61506;BME280;47366;51.916;4.574;2023-04-19T08:55:03;102791.44;;;15.73;46.06
61506;BME280;47366;51.916;4.574;2023-04-19T08:57:30;102796.31;;;15.84;43.83
61506;BME280;47366;51.916;4.574;2023-04-19T08:59:56;102806.28;;;15.85;45.23
61506;BME280;47366;51.916;4.574;2023-04-19T09:02:22;102802.94;;;15.97;43.52
61506;BME280;47366;51.916;4.574;2023-04-19T09:04:48;102800.34;;;16.11;44.36
61506;BME280;47366;51.916;4.574;2023-04-19T09:07:26;102796.69;;;16.11;43.89
61506;BME280;47366;51.916;4.574;2023-04-19T09:10:16;102799.50;;;16.27;45.14
61506;BME280;47366;51.916;4.574;2023-04-19T09:12:58;102796.84;;;16.25;42.59
61506;BME280;47366;51.916;4.574;2023-04-19T09:15:34;102782.84;;;16.31;43.09
61506;BME280;47366;51.916;4.574;2023-04-19T09:18:04;102789.19;;;16.32;42.62
61506;BME280;47366;51.916;4.574;2023-04-19T09:20:35;102790.72;;;16.20;41.86
61506;BME280;47366;51.916;4.574;2023-04-19T09:23:03;102797.19;;;16.19;42.86
61506;BME280;47366;51.916;4.574;2023-04-19T09:25:30;102787.19;;;16.35;42.95
61506;BME280;47366;51.916;4.574;2023-04-19T09:30:36;102776.03;;;16.72;41.94
61506;BME280;47366;51.916;4.574;2023-04-19T09:33:02;102785.56;;;16.65;41.68
61506;BME280;47366;51.916;4.574;2023-04-19T09:38:05;102778.50;;;16.76;41.78
61506;BME280;47366;51.916;4.574;2023-04-19T09:40:31;102768.09;;;16.99;41.00
61506;BME280;47366;51.916;4.574;2023-04-19T09:42:57;102771.09;;;16.94;40.74
61506;BME280;47366;51.916;4.574;2023-04-19T09:45:22;102764.84;;;17.08;40.05
61506;BME280;47366;51.916;4.574;2023-04-19T09:48:04;102773.41;;;17.18;38.58
61506;BME280;47366;51.916;4.574;2023-04-19T09:50:31;102775.06;;;17.20;38.53
61506;BME280;47366;51.916;4.574;2023-04-19T09:52:58;102765.72;;;17.25;39.31
61506;BME280;47366;51.916;4.574;2023-04-19T09:55:25;102760.84;;;17.30;39.74
61506;BME280;47366;51.916;4.574;2023-04-19T09:57:51;102765.44;;;17.29;38.19
61506;BME280;47366;51.916;4.574;2023-04-19T10:00:18;102774.50;;;17.46;37.20
61506;BME280;47366;51.916;4.574;2023-04-19T10:02:46;102765.13;;;17.50;37.46
61506;BME280;47366;51.916;4.574;2023-04-19T10:05:20;102765.00;;;17.67;36.63
61506;BME280;47366;51.916;4.574;2023-04-19T10:07:47;102773.25;;;17.51;34.56
61506;BME280;47366;51.916;4.574;2023-04-19T10:10:14;102765.50;;;17.44;35.67
61506;BME280;47366;51.916;4.574;2023-04-19T10:12:41;102767.97;;;17.78;35.70
61506;BME280;47366;51.916;4.574;2023-04-19T10:15:10;102768.69;;;17.66;33.63
61506;BME280;47366;51.916;4.574;2023-04-19T10:17:36;102764.28;;;17.63;33.43
61506;BME280;47366;51.916;4.574;2023-04-19T10:20:07;102767.81;;;17.66;33.21
61506;BME280;47366;51.916;4.574;2023-04-19T10:22:35;102755.63;;;17.71;33.36
61506;BME280;47366;51.916;4.574;2023-04-19T10:25:11;102755.91;;;17.67;33.65
61506;BME280;47366;51.916;4.574;2023-04-19T10:27:43;102763.22;;;17.66;32.93
61506;BME280;47366;51.916;4.574;2023-04-19T10:30:31;102757.09;;;17.77;32.83
61506;BME280;47366;51.916;4.574;2023-04-19T10:32:58;102758.06;;;17.46;31.29
61506;BME280;47366;51.916;4.574;2023-04-19T10:35:33;102748.03;;;17.60;32.11
61506;BME280;47366;51.916;4.574;2023-04-19T10:43:15;102759.91;;;17.75;30.34
61506;BME280;47366;51.916;4.574;2023-04-19T10:45:44;102755.78;;;17.98;32.24
61506;BME280;47366;51.916;4.574;2023-04-19T10:50:59;102746.19;;;18.20;32.01
61506;BME280;47366;51.916;4.574;2023-04-19T10:53:59;102741.09;;;18.14;31.98
61506;BME280;47366;51.916;4.574;2023-04-19T11:01:41;102747.84;;;18.08;31.60
61506;BME280;47366;51.916;4.574;2023-04-19T11:04:08;102738.56;;;18.25;32.12
61506;BME280;47366;51.916;4.574;2023-04-19T11:06:33;102730.72;;;18.33;31.78
61506;BME280;47366;51.916;4.574;2023-04-19T11:09:00;102732.88;;;18.42;31.26
61506;BME280;47366;51.916;4.574;2023-04-19T11:11:27;102734.06;;;18.38;31.62
61506;BME280;47366;51.916;4.574;2023-04-19T11:13:56;102738.75;;;18.51;31.63
61506;BME280;47366;51.916;4.574;2023-04-19T11:16:23;102737.38;;;18.29;31.03
61506;BME280;47366;51.916;4.574;2023-04-19T11:18:50;102743.38;;;18.21;30.53
61506;BME280;47366;51.916;4.574;2023-04-19T11:21:19;102730.75;;;18.19;31.34
61506;BME280;47366;51.916;4.574;2023-04-19T11:23:44;102726.72;;;18.10;30.46
61506;BME280;47366;51.916;4.574;2023-04-19T11:26:12;102727.56;;;17.96;31.50
61506;BME280;47366;51.916;4.574;2023-04-19T11:28:37;102716.81;;;17.93;29.43
61506;BME280;47366;51.916;4.574;2023-04-19T11:31:04;102718.09;;;18.16;30.70
61506;BME280;47366;51.916;4.574;2023-04-19T11:33:33;102723.84;;;18.55;30.98
61506;BME280;47366;51.916;4.574;2023-04-19T11:35:58;102698.25;;;18.54;31.02
61506;BME280;47366;51.916;4.574;2023-04-19T11:38:29;102713.56;;;18.44;31.40
61506;BME280;47366;51.916;4.574;2023-04-19T11:41:02;102704.13;;;18.62;31.28
61506;BME280;47366;51.916;4.574;2023-04-19T11:43:37;102706.97;;;18.61;31.02
61506;BME280;47366;51.916;4.574;2023-04-19T11:46:12;102702.03;;;18.80;31.71
61506;BME280;47366;51.916;4.574;2023-04-19T11:48:38;102706.00;;;18.76;32.01
61506;BME280;47366;51.916;4.574;2023-04-19T11:51:14;102699.94;;;18.98;31.65
61506;BME280;47366;51.916;4.574;2023-04-19T11:53:40;102695.22;;;19.00;31.28
61506;BME280;47366;51.916;4.574;2023-04-19T11:56:07;102694.28;;;19.14;31.96
61506;BME280;47366;51.916;4.574;2023-04-19T11:58:45;102685.19;;;18.99;32.18
61506;BME280;47366;51.916;4.574;2023-04-19T12:01:17;102686.81;;;18.89;32.66
61506;BME280;47366;51.916;4.574;2023-04-19T12:06:16;102678.81;;;18.86;31.87
61506;BME280;47366;51.916;4.574;2023-04-19T12:08:46;102684.81;;;19.05;32.10
61506;BME280;47366;51.916;4.574;2023-04-19T12:11:13;102680.72;;;18.98;31.29
61506;BME280;47366;51.916;4.574;2023-04-19T12:13:39;102671.53;;;18.85;30.24
61506;BME280;47366;51.916;4.574;2023-04-19T12:16:06;102671.06;;;19.05;31.83
61506;BME280;47366;51.916;4.574;2023-04-19T12:18:47;102661.25;;;19.28;31.09
61506;BME280;47366;51.916;4.574;2023-04-19T12:21:30;102654.00;;;19.40;30.79
61506;BME280;47366;51.916;4.574;2023-04-19T12:23:58;102654.34;;;19.48;30.15
61506;BME280;47366;51.916;4.574;2023-04-19T12:26:28;102647.66;;;19.52;31.80
61506;BME280;47366;51.916;4.574;2023-04-19T12:28:54;102654.34;;;19.36;29.75
61506;BME280;47366;51.916;4.574;2023-04-19T12:31:20;102656.00;;;18.98;28.29
61506;BME280;47366;51.916;4.574;2023-04-19T12:33:45;102652.25;;;18.99;28.82
61506;BME280;47366;51.916;4.574;2023-04-19T12:36:11;102655.38;;;19.07;28.47
61506;BME280;47366;51.916;4.574;2023-04-19T12:38:36;102662.88;;;18.91;29.09
61506;BME280;47366;51.916;4.574;2023-04-19T12:41:02;102654.38;;;19.08;30.02
61506;BME280;47366;51.916;4.574;2023-04-19T12:43:27;102661.88;;;19.19;28.14
61506;BME280;47366;51.916;4.574;2023-04-19T12:45:54;102664.78;;;19.03;29.22
61506;BME280;47366;51.916;4.574;2023-04-19T12:48:20;102660.34;;;18.88;29.58
61506;BME280;47366;51.916;4.574;2023-04-19T12:50:45;102659.59;;;18.99;28.29
61506;BME280;47366;51.916;4.574;2023-04-19T12:53:10;102643.59;;;19.05;28.70
61506;BME280;47366;51.916;4.574;2023-04-19T12:55:36;102645.03;;;19.11;29.69
61506;BME280;47366;51.916;4.574;2023-04-19T12:58:01;102636.00;;;19.09;29.17
61506;BME280;47366;51.916;4.574;2023-04-19T13:00:26;102636.91;;;19.09;29.02
61506;BME280;47366;51.916;4.574;2023-04-19T13:02:54;102630.28;;;18.99;28.69
61506;BME280;47366;51.916;4.574;2023-04-19T13:05:19;102638.91;;;19.20;29.37
61506;BME280;47366;51.916;4.574;2023-04-19T13:07:45;102628.59;;;19.24;29.58
61506;BME280;47366;51.916;4.574;2023-04-19T13:10:11;102622.03;;;18.99;29.39
61506;BME280;47366;51.916;4.574;2023-04-19T13:12:36;102622.19;;;19.10;27.04
61506;BME280;47366;51.916;4.574;2023-04-19T13:15:02;102616.69;;;19.10;27.42